sensor_id;sensor_type;location;lat;lon;timestamp;temperature;humidity
23801;DHT22;12081;48.614;10.226;2023-02-28T00:02:05;-2.70;99.90
23801;DHT22;12081;48.614;10.226;2023-02-28T00:04:49;-2.70;99.90
23801;DHT22;12081;48.614;10.226;2023-02-28T00:07:37;-2.70;99.90
23801;DHT22;12081;48.614;10.226;2023-02-28T00:10:29;-2.70;99.90
23801;DHT22;12081;48.614;10.226;2023-02-28T00:13:13;-2.80;99.90
23801;DHT22;12081;48.614;10.226;2023-02-28T00:16:06;-2.80;99.90
23801;DHT22;12081;48.614;10.226;2023-02-28T00:18:50;-2.80;99.90
23801;DHT22;12081;48.614;10.226;2023-02-28T00:21:35;-2.80;99.90
23801;DHT22;12081;48.614;10.226;2023-02-28T00:24:19;-2.80;99.90
23801;DHT22;12081;48.614;10.226;2023-02-28T00:27:03;-2.80;99.90
23801;DHT22;12081;48.614;10.226;2023-02-28T00:29:47;-2.80;99.90
23801;DHT22;12081;48.614;10.226;2023-02-28T00:32:31;-2.80;99.90
23801;DHT22;12081;48.614;10.226;2023-02-28T00:35:15;-2.90;99.90
23801;DHT22;12081;48.614;10.226;2023-02-28T00:38:00;-2.90;99.90
23801;DHT22;12081;48.614;10.226;2023-02-28T00:40:44;-2.90;99.90
23801;DHT22;12081;48.614;10.226;2023-02-28T00:43:28;-2.90;99.90
23801;DHT22;12081;48.614;10.226;2023-02-28T00:46:12;-2.20;99.90
23801;DHT22;12081;48.614;10.226;2023-02-28T00:48:56;-2.80;99.90
23801;DHT22;12081;48.614;10.226;2023-02-28T00:51:40;-3.00;99.90
23801;DHT22;12081;48.614;10.226;2023-02-28T00:54:24;-2.30;99.90
23801;DHT22;12081;48.614;10.226;2023-02-28T00:57:08;-3.00;99.90
23801;DHT22;12081;48.614;10.226;2023-02-28T00:59:52;-2.80;99.90
23801;DHT22;12081;48.614;10.226;2023-02-28T01:02:38;-3.00;99.90
23801;DHT22;12081;48.614;10.226;2023-02-28T01:05:22;-2.60;99.90
23801;DHT22;12081;48.614;10.226;2023-02-28T01:08:06;-2.90;99.90
23801;DHT22;12081;48.614;10.226;2023-02-28T01:10:51;-3.00;99.90
23801;DHT22;12081;48.614;10.226;2023-02-28T01:13:35;-2.70;99.90
23801;DHT22;12081;48.614;10.226;2023-02-28T01:16:19;-3.00;99.90
23801;DHT22;12081;48.614;10.226;2023-02-28T01:19:03;-2.90;99.90
23801;DHT22;12081;48.614;10.226;2023-02-28T01:21:47;-2.90;99.90
23801;DHT22;12081;48.614;10.226;2023-02-28T01:24:31;-3.00;99.90
23801;DHT22;12081;48.614;10.226;2023-02-28T01:27:15;-3.00;99.90
23801;DHT22;12081;48.614;10.226;2023-02-28T01:29:59;-3.00;99.90
23801;DHT22;12081;48.614;10.226;2023-02-28T01:32:43;-3.00;99.90
23801;DHT22;12081;48.614;10.226;2023-02-28T01:35:27;-2.80;99.90
23801;DHT22;12081;48.614;10.226;2023-02-28T01:38:12;-2.90;99.90
23801;DHT22;12081;48.614;10.226;2023-02-28T01:40:56;-2.90;99.90
23801;DHT22;12081;48.614;10.226;2023-02-28T01:46:27;-2.90;99.90
23801;DHT22;12081;48.614;10.226;2023-02-28T01:49:14;-2.90;99.90
23801;DHT22;12081;48.614;10.226;2023-02-28T01:51:59;-2.90;99.90
23801;DHT22;12081;48.614;10.226;2023-02-28T01:54:43;-2.90;99.90
23801;DHT22;12081;48.614;10.226;2023-02-28T01:57:36;-2.90;99.90
23801;DHT22;12081;48.614;10.226;2023-02-28T02:00:25;-2.70;99.90
23801;DHT22;12081;48.614;10.226;2023-02-28T02:03:13;-2.90;99.90
23801;DHT22;12081;48.614;10.226;2023-02-28T02:05:58;-2.90;99.90
23801;DHT22;12081;48.614;10.226;2023-02-28T02:08:43;-2.90;99.90
23801;DHT22;12081;48.614;10.226;2023-02-28T02:11:27;-2.60;99.90
23801;DHT22;12081;48.614;10.226;2023-02-28T02:17:33;-2.90;99.90
23801;DHT22;12081;48.614;10.226;2023-02-28T02:20:44;-2.90;99.90
23801;DHT22;12081;48.614;10.226;2023-02-28T02:23:51;-2.80;99.90
23801;DHT22;12081;48.614;10.226;2023-02-28T02:39:28;-2.80;99.90
23801;DHT22;12081;48.614;10.226;2023-02-28T02:42:31;-2.80;99.90
23801;DHT22;12081;48.614;10.226;2023-02-28T02:45:31;-2.80;99.90
23801;DHT22;12081;48.614;10.226;2023-02-28T02:48:24;-2.80;99.90
23801;DHT22;12081;48.614;10.226;2023-02-28T02:51:17;-2.80;99.90
23801;DHT22;12081;48.614;10.226;2023-02-28T02:54:11;-2.80;99.90
23801;DHT22;12081;48.614;10.226;2023-02-28T02:57:04;-2.80;99.90
23801;DHT22;12081;48.614;10.226;2023-02-28T02:59:51;-2.80;99.90
23801;DHT22;12081;48.614;10.226;2023-02-28T03:02:37;-2.80;99.90
23801;DHT22;12081;48.614;10.226;2023-02-28T03:05:41;-2.80;99.90
23801;DHT22;12081;48.614;10.226;2023-02-28T03:08:30;-2.80;99.90
23801;DHT22;12081;48.614;10.226;2023-02-28T03:11:17;-2.80;99.90
23801;DHT22;12081;48.614;10.226;2023-02-28T03:14:22;-2.80;99.90
23801;DHT22;12081;48.614;10.226;2023-02-28T03:26:17;-2.90;99.90
23801;DHT22;12081;48.614;10.226;2023-02-28T03:29:07;-2.90;99.90
23801;DHT22;12081;48.614;10.226;2023-02-28T03:32:05;-2.90;99.90
23801;DHT22;12081;48.614;10.226;2023-02-28T03:35:12;-1.10;99.90
23801;DHT22;12081;48.614;10.226;2023-02-28T03:38:10;-2.90;99.90
23801;DHT22;12081;48.614;10.226;2023-02-28T03:41:05;-4.40;99.90
23801;DHT22;12081;48.614;10.226;2023-02-28T03:43:56;-2.90;99.90
23801;DHT22;12081;48.614;10.226;2023-02-28T03:47:12;-2.90;99.90
23801;DHT22;12081;48.614;10.226;2023-02-28T03:49:59;-2.90;99.90
23801;DHT22;12081;48.614;10.226;2023-02-28T03:53:15;-2.90;99.90
23801;DHT22;12081;48.614;10.226;2023-02-28T03:56:20;-2.90;99.90
23801;DHT22;12081;48.614;10.226;2023-02-28T04:02:06;-2.90;99.90
23801;DHT22;12081;48.614;10.226;2023-02-28T04:04:50;-2.90;99.90
23801;DHT22;12081;48.614;10.226;2023-02-28T04:07:35;-2.90;99.90
23801;DHT22;12081;48.614;10.226;2023-02-28T04:10:19;-2.90;99.90
23801;DHT22;12081;48.614;10.226;2023-02-28T04:13:04;-2.90;99.90
23801;DHT22;12081;48.614;10.226;2023-02-28T04:15:48;-2.90;99.90
23801;DHT22;12081;48.614;10.226;2023-02-28T04:18:32;-2.90;99.90
23801;DHT22;12081;48.614;10.226;2023-02-28T04:21:16;-2.90;99.90
23801;DHT22;12081;48.614;10.226;2023-02-28T04:24:05;-2.90;99.90
23801;DHT22;12081;48.614;10.226;2023-02-28T04:26:52;-2.90;99.90
23801;DHT22;12081;48.614;10.226;2023-02-28T04:29:36;-2.90;99.90
23801;DHT22;12081;48.614;10.226;2023-02-28T04:32:20;-3.00;99.90
23801;DHT22;12081;48.614;10.226;2023-02-28T04:35:05;-3.00;99.90
23801;DHT22;12081;48.614;10.226;2023-02-28T04:37:49;-3.00;99.90
23801;DHT22;12081;48.614;10.226;2023-02-28T04:40:33;-2.90;99.90
23801;DHT22;12081;48.614;10.226;2023-02-28T04:43:17;-2.90;99.90
23801;DHT22;12081;48.614;10.226;2023-02-28T04:46:03;-2.90;99.90
23801;DHT22;12081;48.614;10.226;2023-02-28T04:48:49;-3.00;99.90
23801;DHT22;12081;48.614;10.226;2023-02-28T04:51:32;-3.00;99.90
23801;DHT22;12081;48.614;10.226;2023-02-28T04:54:17;-3.00;99.90
23801;DHT22;12081;48.614;10.226;2023-02-28T04:57:01;-3.00;99.90
23801;DHT22;12081;48.614;10.226;2023-02-28T04:59:45;-3.00;99.90
23801;DHT22;12081;48.614;10.226;2023-02-28T05:02:29;-3.10;99.90
23801;DHT22;12081;48.614;10.226;2023-02-28T05:05:14;-3.10;99.90
23801;DHT22;12081;48.614;10.226;2023-02-28T05:08:02;-3.00;99.90
23801;DHT22;12081;48.614;10.226;2023-02-28T05:10:46;-2.60;99.90
23801;DHT22;12081;48.614;10.226;2023-02-28T05:13:30;-3.00;99.90
23801;DHT22;12081;48.614;10.226;2023-02-28T05:16:14;-3.00;99.90
23801;DHT22;12081;48.614;10.226;2023-02-28T05:18:59;-3.00;99.90
23801;DHT22;12081;48.614;10.226;2023-02-28T05:21:52;-3.00;99.90
23801;DHT22;12081;48.614;10.226;2023-02-28T05:24:36;-3.00;99.90
23801;DHT22;12081;48.614;10.226;2023-02-28T05:27:20;-3.00;99.90
23801;DHT22;12081;48.614;10.226;2023-02-28T05:30:05;-1.00;99.90
23801;DHT22;12081;48.614;10.226;2023-02-28T05:32:51;-3.00;99.90
23801;DHT22;12081;48.614;10.226;2023-02-28T05:35:38;-3.00;99.90
23801;DHT22;12081;48.614;10.226;2023-02-28T05:38:23;-3.00;99.90
23801;DHT22;12081;48.614;10.226;2023-02-28T05:41:09;-3.00;99.90
23801;DHT22;12081;48.614;10.226;2023-02-28T05:43:53;-3.00;99.90
23801;DHT22;12081;48.614;10.226;2023-02-28T05:46:37;-3.00;99.90
23801;DHT22;12081;48.614;10.226;2023-02-28T05:49:22;-3.00;99.90
23801;DHT22;12081;48.614;10.226;2023-02-28T05:52:06;-3.00;99.90
23801;DHT22;12081;48.614;10.226;2023-02-28T05:54:50;-3.00;99.90
23801;DHT22;12081;48.614;10.226;2023-02-28T05:57:34;-3.00;99.90
23801;DHT22;12081;48.614;10.226;2023-02-28T06:00:18;-3.00;99.90
23801;DHT22;12081;48.614;10.226;2023-02-28T06:03:03;-3.00;99.90
23801;DHT22;12081;48.614;10.226;2023-02-28T06:05:47;-3.00;99.90
23801;DHT22;12081;48.614;10.226;2023-02-28T06:08:31;-3.00;99.90
23801;DHT22;12081;48.614;10.226;2023-02-28T06:11:15;-3.00;99.90
23801;DHT22;12081;48.614;10.226;2023-02-28T06:14:00;-3.00;99.90
23801;DHT22;12081;48.614;10.226;2023-02-28T06:16:45;-0.50;99.90
23801;DHT22;12081;48.614;10.226;2023-02-28T06:19:29;-3.00;99.90
23801;DHT22;12081;48.614;10.226;2023-02-28T06:22:14;-3.00;99.90
23801;DHT22;12081;48.614;10.226;2023-02-28T06:24:58;-2.90;99.90
23801;DHT22;12081;48.614;10.226;2023-02-28T06:27:43;-2.90;99.90
23801;DHT22;12081;48.614;10.226;2023-02-28T06:34:08;-2.90;99.90
23801;DHT22;12081;48.614;10.226;2023-02-28T06:36:52;-2.90;99.90
23801;DHT22;12081;48.614;10.226;2023-02-28T06:39:37;-2.90;99.90
23801;DHT22;12081;48.614;10.226;2023-02-28T06:42:25;-2.90;99.90
23801;DHT22;12081;48.614;10.226;2023-02-28T06:45:13;-2.90;99.90
23801;DHT22;12081;48.614;10.226;2023-02-28T06:47:57;-2.90;99.90
23801;DHT22;12081;48.614;10.226;2023-02-28T06:50:42;-2.80;99.90
23801;DHT22;12081;48.614;10.226;2023-02-28T06:53:26;-2.80;99.90
23801;DHT22;12081;48.614;10.226;2023-02-28T06:56:15;-2.80;99.90
23801;DHT22;12081;48.614;10.226;2023-02-28T06:59:00;-2.80;99.90
23801;DHT22;12081;48.614;10.226;2023-02-28T07:01:44;-2.80;99.90
23801;DHT22;12081;48.614;10.226;2023-02-28T07:04:29;-2.80;99.90
23801;DHT22;12081;48.614;10.226;2023-02-28T07:07:13;-2.80;99.90
23801;DHT22;12081;48.614;10.226;2023-02-28T07:09:57;-2.80;99.90
23801;DHT22;12081;48.614;10.226;2023-02-28T07:12:41;-2.80;99.90
23801;DHT22;12081;48.614;10.226;2023-02-28T07:15:25;-2.90;99.90
23801;DHT22;12081;48.614;10.226;2023-02-28T07:18:09;-2.80;99.90
23801;DHT22;12081;48.614;10.226;2023-02-28T07:20:53;-2.70;99.90
23801;DHT22;12081;48.614;10.226;2023-02-28T07:23:40;-2.60;99.90
23801;DHT22;12081;48.614;10.226;2023-02-28T07:26:25;-2.60;99.90
23801;DHT22;12081;48.614;10.226;2023-02-28T07:29:09;-2.60;99.90
23801;DHT22;12081;48.614;10.226;2023-02-28T07:31:54;-2.60;99.90
23801;DHT22;12081;48.614;10.226;2023-02-28T07:34:38;-2.50;99.90
23801;DHT22;12081;48.614;10.226;2023-02-28T07:37:22;-2.40;99.90
23801;DHT22;12081;48.614;10.226;2023-02-28T07:40:09;-2.30;99.90
23801;DHT22;12081;48.614;10.226;2023-02-28T07:42:53;-2.30;99.90
23801;DHT22;12081;48.614;10.226;2023-02-28T07:45:37;-2.20;99.90
23801;DHT22;12081;48.614;10.226;2023-02-28T07:48:21;-2.20;99.90
23801;DHT22;12081;48.614;10.226;2023-02-28T07:51:05;-2.10;99.90
23801;DHT22;12081;48.614;10.226;2023-02-28T07:53:49;-2.10;99.90
23801;DHT22;12081;48.614;10.226;2023-02-28T07:56:33;-2.00;99.90
23801;DHT22;12081;48.614;10.226;2023-02-28T07:59:17;-1.90;99.90
23801;DHT22;12081;48.614;10.226;2023-02-28T08:02:01;-1.90;99.90
23801;DHT22;12081;48.614;10.226;2023-02-28T08:04:45;-1.80;99.90
23801;DHT22;12081;48.614;10.226;2023-02-28T08:07:30;-1.80;99.90
23801;DHT22;12081;48.614;10.226;2023-02-28T08:10:15;-1.60;99.90
23801;DHT22;12081;48.614;10.226;2023-02-28T08:12:59;-1.50;99.90
23801;DHT22;12081;48.614;10.226;2023-02-28T08:15:43;-1.50;99.90
23801;DHT22;12081;48.614;10.226;2023-02-28T08:18:29;-1.50;99.90
23801;DHT22;12081;48.614;10.226;2023-02-28T08:21:13;-1.70;99.90
23801;DHT22;12081;48.614;10.226;2023-02-28T08:23:57;-1.60;99.90
23801;DHT22;12081;48.614;10.226;2023-02-28T08:26:41;-1.60;99.90
23801;DHT22;12081;48.614;10.226;2023-02-28T08:29:25;-1.50;99.90
23801;DHT22;12081;48.614;10.226;2023-02-28T08:32:09;-1.40;99.90
23801;DHT22;12081;48.614;10.226;2023-02-28T08:34:53;-1.40;99.90
23801;DHT22;12081;48.614;10.226;2023-02-28T08:37:37;-1.20;99.90
23801;DHT22;12081;48.614;10.226;2023-02-28T08:40:21;-1.20;99.90
23801;DHT22;12081;48.614;10.226;2023-02-28T08:43:06;-0.40;99.90
23801;DHT22;12081;48.614;10.226;2023-02-28T08:45:55;-0.90;99.90
23801;DHT22;12081;48.614;10.226;2023-02-28T08:48:40;-0.80;99.90
23801;DHT22;12081;48.614;10.226;2023-02-28T08:51:26;-0.80;99.90
23801;DHT22;12081;48.614;10.226;2023-02-28T08:54:11;-0.80;99.90
23801;DHT22;12081;48.614;10.226;2023-02-28T08:57:00;-1.10;99.90
23801;DHT22;12081;48.614;10.226;2023-02-28T08:59:44;-0.50;99.90
23801;DHT22;12081;48.614;10.226;2023-02-28T09:02:28;-0.30;99.90
23801;DHT22;12081;48.614;10.226;2023-02-28T09:05:12;-0.20;99.90
23801;DHT22;12081;48.614;10.226;2023-02-28T09:07:56;0.00;99.90
23801;DHT22;12081;48.614;10.226;2023-02-28T09:10:40;-0.10;99.90
23801;DHT22;12081;48.614;10.226;2023-02-28T09:13:25;0.00;99.90
23801;DHT22;12081;48.614;10.226;2023-02-28T09:16:12;0.20;99.90
23801;DHT22;12081;48.614;10.226;2023-02-28T09:18:57;0.30;99.90
23801;DHT22;12081;48.614;10.226;2023-02-28T09:21:41;0.30;99.90
23801;DHT22;12081;48.614;10.226;2023-02-28T09:24:25;0.20;99.90
23801;DHT22;12081;48.614;10.226;2023-02-28T09:27:09;0.20;99.90
23801;DHT22;12081;48.614;10.226;2023-02-28T09:29:53;0.40;99.90
23801;DHT22;12081;48.614;10.226;2023-02-28T09:32:37;1.10;99.90
23801;DHT22;12081;48.614;10.226;2023-02-28T09:35:22;1.80;99.90
23801;DHT22;12081;48.614;10.226;2023-02-28T09:38:07;2.70;99.50
23801;DHT22;12081;48.614;10.226;2023-02-28T09:40:58;3.40;95.90
23801;DHT22;12081;48.614;10.226;2023-02-28T09:43:55;4.50;92.70
23801;DHT22;12081;48.614;10.226;2023-02-28T09:46:44;5.60;85.30
23801;DHT22;12081;48.614;10.226;2023-02-28T09:49:37;5.50;78.70
23801;DHT22;12081;48.614;10.226;2023-02-28T09:52:28;4.70;79.70
23801;DHT22;12081;48.614;10.226;2023-02-28T09:55:38;3.70;82.30
23801;DHT22;12081;48.614;10.226;2023-02-28T09:58:48;2.80;87.90
23801;DHT22;12081;48.614;10.226;2023-02-28T10:01:58;2.00;91.80
23801;DHT22;12081;48.614;10.226;2023-02-28T10:04:46;2.20;93.20
23801;DHT22;12081;48.614;10.226;2023-02-28T10:11:03;4.50;86.10
23801;DHT22;12081;48.614;10.226;2023-02-28T10:14:12;4.40;82.10
23801;DHT22;12081;48.614;10.226;2023-02-28T10:17:04;3.70;85.50
23801;DHT22;12081;48.614;10.226;2023-02-28T10:19:59;4.10;85.30
23801;DHT22;12081;48.614;10.226;2023-02-28T10:22:57;4.80;82.50
23801;DHT22;12081;48.614;10.226;2023-02-28T10:25:46;6.60;78.60
23801;DHT22;12081;48.614;10.226;2023-02-28T10:28:32;8.40;66.50
23801;DHT22;12081;48.614;10.226;2023-02-28T10:31:18;9.40;59.30
23801;DHT22;12081;48.614;10.226;2023-02-28T10:34:03;10.40;56.60
23801;DHT22;12081;48.614;10.226;2023-02-28T10:36:50;11.30;53.80
23801;DHT22;12081;48.614;10.226;2023-02-28T10:39:41;10.90;51.80
23801;DHT22;12081;48.614;10.226;2023-02-28T10:42:29;11.30;53.00
23801;DHT22;12081;48.614;10.226;2023-02-28T10:45:15;11.50;50.80
23801;DHT22;12081;48.614;10.226;2023-02-28T10:50:58;10.30;51.40
23801;DHT22;12081;48.614;10.226;2023-02-28T10:56:27;9.70;52.60
23801;DHT22;12081;48.614;10.226;2023-02-28T11:01:58;9.50;52.90
23801;DHT22;12081;48.614;10.226;2023-02-28T11:04:42;9.80;53.40
23801;DHT22;12081;48.614;10.226;2023-02-28T11:07:27;9.50;52.60
23801;DHT22;12081;48.614;10.226;2023-02-28T11:10:18;11.50;55.10
23801;DHT22;12081;48.614;10.226;2023-02-28T11:13:03;8.20;55.20
23801;DHT22;12081;48.614;10.226;2023-02-28T11:15:54;8.30;55.20
23801;DHT22;12081;48.614;10.226;2023-02-28T11:21:32;8.00;55.60
23801;DHT22;12081;48.614;10.226;2023-02-28T11:24:29;8.20;55.70
23801;DHT22;12081;48.614;10.226;2023-02-28T11:30:33;8.20;55.90
23801;DHT22;12081;48.614;10.226;2023-02-28T11:33:28;8.20;55.70
23801;DHT22;12081;48.614;10.226;2023-02-28T11:36:26;8.80;56.10
23801;DHT22;12081;48.614;10.226;2023-02-28T11:39:12;9.10;54.60
23801;DHT22;12081;48.614;10.226;2023-02-28T11:48:21;10.40;53.40
23801;DHT22;12081;48.614;10.226;2023-02-28T11:51:18;10.70;51.20
23801;DHT22;12081;48.614;10.226;2023-02-28T11:57:00;11.70;50.10
23801;DHT22;12081;48.614;10.226;2023-02-28T11:59:57;11.20;49.60
23801;DHT22;12081;48.614;10.226;2023-02-28T12:03:03;10.50;50.90
23801;DHT22;12081;48.614;10.226;2023-02-28T12:06:09;9.90;52.20
23801;DHT22;12081;48.614;10.226;2023-02-28T12:09:19;9.90;53.10
23801;DHT22;12081;48.614;10.226;2023-02-28T12:12:26;10.40;52.10
23801;DHT22;12081;48.614;10.226;2023-02-28T12:18:51;9.90;51.70
23801;DHT22;12081;48.614;10.226;2023-02-28T12:22:01;10.80;52.10
23801;DHT22;12081;48.614;10.226;2023-02-28T12:27:30;11.90;48.60
23801;DHT22;12081;48.614;10.226;2023-02-28T12:33:07;12.00;47.30
23801;DHT22;12081;48.614;10.226;2023-02-28T12:35:56;13.20;46.30
23801;DHT22;12081;48.614;10.226;2023-02-28T12:38:45;15.40;47.00
23801;DHT22;12081;48.614;10.226;2023-02-28T12:41:42;13.60;45.20
23801;DHT22;12081;48.614;10.226;2023-02-28T12:47:27;13.50;44.00
23801;DHT22;12081;48.614;10.226;2023-02-28T12:50:11;12.50;45.30
23801;DHT22;12081;48.614;10.226;2023-02-28T12:59:35;11.60;47.70
23801;DHT22;12081;48.614;10.226;2023-02-28T13:02:41;11.80;48.60
23801;DHT22;12081;48.614;10.226;2023-02-28T13:08:48;11.30;48.60
23801;DHT22;12081;48.614;10.226;2023-02-28T13:11:52;11.00;49.70
23801;DHT22;12081;48.614;10.226;2023-02-28T13:14:37;10.80;49.50
23801;DHT22;12081;48.614;10.226;2023-02-28T13:17:21;10.70;49.40
23801;DHT22;12081;48.614;10.226;2023-02-28T13:20:23;10.70;49.80
23801;DHT22;12081;48.614;10.226;2023-02-28T13:37:42;8.70;52.40
23801;DHT22;12081;48.614;10.226;2023-02-28T13:40:31;8.80;52.20
23801;DHT22;12081;48.614;10.226;2023-02-28T13:43:20;10.20;53.50
23801;DHT22;12081;48.614;10.226;2023-02-28T13:46:24;8.30;53.20
23801;DHT22;12081;48.614;10.226;2023-02-28T13:49:38;8.20;53.70
23801;DHT22;12081;48.614;10.226;2023-02-28T13:52:23;8.00;53.80
23801;DHT22;12081;48.614;10.226;2023-02-28T13:55:24;7.70;54.30
23801;DHT22;12081;48.614;10.226;2023-02-28T13:58:21;7.80;54.80
23801;DHT22;12081;48.614;10.226;2023-02-28T14:07:01;8.20;53.90
23801;DHT22;12081;48.614;10.226;2023-02-28T14:09:52;8.20;53.90
23801;DHT22;12081;48.614;10.226;2023-02-28T14:15:47;9.00;55.40
23801;DHT22;12081;48.614;10.226;2023-02-28T14:18:35;8.00;54.00
23801;DHT22;12081;48.614;10.226;2023-02-28T14:21:26;7.90;55.00
23801;DHT22;12081;48.614;10.226;2023-02-28T14:24:47;7.80;55.50
23801;DHT22;12081;48.614;10.226;2023-02-28T14:34:03;6.50;58.60
23801;DHT22;12081;48.614;10.226;2023-02-28T14:36:50;6.20;58.30
23801;DHT22;12081;48.614;10.226;2023-02-28T14:39:36;6.20;59.10
23801;DHT22;12081;48.614;10.226;2023-02-28T14:42:31;6.20;59.70
23801;DHT22;12081;48.614;10.226;2023-02-28T14:45:21;6.00;59.70
23801;DHT22;12081;48.614;10.226;2023-02-28T14:48:09;5.90;59.90
23801;DHT22;12081;48.614;10.226;2023-02-28T14:50:59;5.80;61.30
23801;DHT22;12081;48.614;10.226;2023-02-28T14:53:47;5.80;61.20
23801;DHT22;12081;48.614;10.226;2023-02-28T14:56:37;5.80;60.90
23801;DHT22;12081;48.614;10.226;2023-02-28T14:59:31;5.50;62.00
23801;DHT22;12081;48.614;10.226;2023-02-28T15:02:23;5.50;62.70
23801;DHT22;12081;48.614;10.226;2023-02-28T15:08:16;5.40;63.40
23801;DHT22;12081;48.614;10.226;2023-02-28T15:11:16;5.30;63.20
23801;DHT22;12081;48.614;10.226;2023-02-28T15:14:03;5.20;64.00
23801;DHT22;12081;48.614;10.226;2023-02-28T15:17:02;5.20;64.60
23801;DHT22;12081;48.614;10.226;2023-02-28T15:19:52;5.10;64.80
23801;DHT22;12081;48.614;10.226;2023-02-28T15:22:37;5.10;64.10
23801;DHT22;12081;48.614;10.226;2023-02-28T15:25:22;5.10;65.00
23801;DHT22;12081;48.614;10.226;2023-02-28T15:28:13;5.00;65.30
23801;DHT22;12081;48.614;10.226;2023-02-28T15:31:00;4.90;66.00
23801;DHT22;12081;48.614;10.226;2023-02-28T15:33:56;4.90;66.20
23801;DHT22;12081;48.614;10.226;2023-02-28T15:36:41;4.70;66.90
23801;DHT22;12081;48.614;10.226;2023-02-28T15:39:27;4.70;67.30
23801;DHT22;12081;48.614;10.226;2023-02-28T15:42:18;4.60;67.50
23801;DHT22;12081;48.614;10.226;2023-02-28T15:45:03;4.50;68.20
23801;DHT22;12081;48.614;10.226;2023-02-28T15:47:48;4.40;68.50
23801;DHT22;12081;48.614;10.226;2023-02-28T15:50:34;4.20;69.40
23801;DHT22;12081;48.614;10.226;2023-02-28T15:53:25;4.10;69.90
23801;DHT22;12081;48.614;10.226;2023-02-28T15:59:15;3.90;71.80
23801;DHT22;12081;48.614;10.226;2023-02-28T16:02:14;3.70;72.70
23801;DHT22;12081;48.614;10.226;2023-02-28T16:07:50;3.60;74.40
23801;DHT22;12081;48.614;10.226;2023-02-28T16:10:34;3.60;74.70
23801;DHT22;12081;48.614;10.226;2023-02-28T16:13:18;3.50;75.30
23801;DHT22;12081;48.614;10.226;2023-02-28T16:16:02;3.40;76.20
23801;DHT22;12081;48.614;10.226;2023-02-28T16:18:47;3.30;76.70
23801;DHT22;12081;48.614;10.226;2023-02-28T16:21:31;3.30;77.90
23801;DHT22;12081;48.614;10.226;2023-02-28T16:24:15;3.10;79.80
23801;DHT22;12081;48.614;10.226;2023-02-28T16:27:00;3.00;81.00
23801;DHT22;12081;48.614;10.226;2023-02-28T16:29:44;2.90;82.40
23801;DHT22;12081;48.614;10.226;2023-02-28T16:32:29;2.70;84.60
23801;DHT22;12081;48.614;10.226;2023-02-28T16:35:14;2.60;86.40
23801;DHT22;12081;48.614;10.226;2023-02-28T16:37:59;2.60;88.10
23801;DHT22;12081;48.614;10.226;2023-02-28T16:40:44;2.50;90.10
23801;DHT22;12081;48.614;10.226;2023-02-28T16:43:29;2.40;91.30
23801;DHT22;12081;48.614;10.226;2023-02-28T16:46:14;2.30;91.90
23801;DHT22;12081;48.614;10.226;2023-02-28T16:48:59;2.20;92.80
23801;DHT22;12081;48.614;10.226;2023-02-28T16:51:43;2.10;93.70
23801;DHT22;12081;48.614;10.226;2023-02-28T16:54:27;1.90;95.20
23801;DHT22;12081;48.614;10.226;2023-02-28T16:57:21;1.80;97.00
23801;DHT22;12081;48.614;10.226;2023-02-28T17:00:07;1.70;98.30
23801;DHT22;12081;48.614;10.226;2023-02-28T17:02:52;1.60;99.10
23801;DHT22;12081;48.614;10.226;2023-02-28T17:05:38;1.50;99.90
23801;DHT22;12081;48.614;10.226;2023-02-28T17:08:23;1.30;99.90
23801;DHT22;12081;48.614;10.226;2023-02-28T17:11:08;1.20;99.90
23801;DHT22;12081;48.614;10.226;2023-02-28T17:13:53;1.10;99.90
23801;DHT22;12081;48.614;10.226;2023-02-28T17:16:40;1.00;99.90
23801;DHT22;12081;48.614;10.226;2023-02-28T17:19:25;0.90;99.90
23801;DHT22;12081;48.614;10.226;2023-02-28T17:22:11;0.80;99.90
23801;DHT22;12081;48.614;10.226;2023-02-28T17:24:55;0.80;99.90
23801;DHT22;12081;48.614;10.226;2023-02-28T17:27:39;0.60;99.90
23801;DHT22;12081;48.614;10.226;2023-02-28T17:30:26;0.50;99.90
23801;DHT22;12081;48.614;10.226;2023-02-28T17:33:14;0.40;99.90
23801;DHT22;12081;48.614;10.226;2023-02-28T17:35:58;0.30;99.90
23801;DHT22;12081;48.614;10.226;2023-02-28T17:38:43;0.20;99.90
23801;DHT22;12081;48.614;10.226;2023-02-28T17:41:27;0.20;99.90
23801;DHT22;12081;48.614;10.226;2023-02-28T17:44:13;0.00;99.90
23801;DHT22;12081;48.614;10.226;2023-02-28T17:46:59;-0.10;99.90
23801;DHT22;12081;48.614;10.226;2023-02-28T17:49:43;-0.20;99.90
23801;DHT22;12081;48.614;10.226;2023-02-28T17:52:27;-0.30;99.90
23801;DHT22;12081;48.614;10.226;2023-02-28T17:55:13;-0.30;99.90
23801;DHT22;12081;48.614;10.226;2023-02-28T17:57:57;-0.30;99.90
23801;DHT22;12081;48.614;10.226;2023-02-28T18:00:41;-0.40;99.90
23801;DHT22;12081;48.614;10.226;2023-02-28T18:03:25;-0.50;99.90
23801;DHT22;12081;48.614;10.226;2023-02-28T18:06:19;-0.60;99.90
23801;DHT22;12081;48.614;10.226;2023-02-28T18:09:04;-0.50;99.90
23801;DHT22;12081;48.614;10.226;2023-02-28T18:11:53;-0.40;99.90
23801;DHT22;12081;48.614;10.226;2023-02-28T18:14:38;-0.50;99.90
23801;DHT22;12081;48.614;10.226;2023-02-28T18:17:22;-0.50;99.90
23801;DHT22;12081;48.614;10.226;2023-02-28T18:20:09;-0.50;99.90
23801;DHT22;12081;48.614;10.226;2023-02-28T18:22:53;-0.40;99.90
23801;DHT22;12081;48.614;10.226;2023-02-28T18:25:39;-0.30;99.90
23801;DHT22;12081;48.614;10.226;2023-02-28T18:28:24;-0.30;99.90
23801;DHT22;12081;48.614;10.226;2023-02-28T18:31:18;-0.30;99.90
23801;DHT22;12081;48.614;10.226;2023-02-28T18:34:02;-0.30;99.90
23801;DHT22;12081;48.614;10.226;2023-02-28T18:36:46;-0.40;99.90
23801;DHT22;12081;48.614;10.226;2023-02-28T18:39:31;-0.40;99.90
23801;DHT22;12081;48.614;10.226;2023-02-28T18:42:15;-0.40;99.90
23801;DHT22;12081;48.614;10.226;2023-02-28T18:44:59;-0.40;99.90
23801;DHT22;12081;48.614;10.226;2023-02-28T18:47:43;-0.40;99.90
23801;DHT22;12081;48.614;10.226;2023-02-28T18:50:27;-0.40;99.90
23801;DHT22;12081;48.614;10.226;2023-02-28T18:53:12;-0.40;99.90
23801;DHT22;12081;48.614;10.226;2023-02-28T18:55:59;-0.40;99.90
23801;DHT22;12081;48.614;10.226;2023-02-28T18:58:44;-0.40;99.90
23801;DHT22;12081;48.614;10.226;2023-02-28T19:01:29;-0.40;99.90
23801;DHT22;12081;48.614;10.226;2023-02-28T19:04:15;-0.50;99.90
23801;DHT22;12081;48.614;10.226;2023-02-28T19:06:58;-0.60;99.90
23801;DHT22;12081;48.614;10.226;2023-02-28T19:09:51;-0.60;99.90
23801;DHT22;12081;48.614;10.226;2023-02-28T19:12:36;-0.70;99.90
23801;DHT22;12081;48.614;10.226;2023-02-28T19:15:20;-0.70;99.90
23801;DHT22;12081;48.614;10.226;2023-02-28T19:18:04;-0.70;99.90
23801;DHT22;12081;48.614;10.226;2023-02-28T19:20:48;-0.60;99.90
23801;DHT22;12081;48.614;10.226;2023-02-28T19:23:32;-0.70;99.90
23801;DHT22;12081;48.614;10.226;2023-02-28T19:26:19;-0.70;99.90
23801;DHT22;12081;48.614;10.226;2023-02-28T19:29:04;-0.70;99.90
23801;DHT22;12081;48.614;10.226;2023-02-28T19:31:49;-0.70;99.90